Time;durP1;ratioP1;P1;durP2;ratioP2;P2;SDS_P1;SDS_P2;PMS_P1;PMS_P2;Temp;Humidity;BMP_temperature;BMP_pressure;BME280_temperature;BME280_humidity;BME280_pressure;Samples;Min_cycle;Max_cycle;Signal;HPM_P1;HPM_P2
2021/04/29 00:01:09;;;;;;;19.38;10.32;;;;;;;;;;5114513;28;20419;-61
2021/04/29 00:03:34;;;;;;;19.52;11.18;;;;;;;;;;5114560;28;20053;-61
2021/04/29 00:06:00;;;;;;;21.02;12.50;;;;;;;;;;5114265;28;20023;-60
2021/04/29 00:08:26;;;;;;;22.65;12.18;;;;;;;;;;5114294;27;20098;-61
2021/04/29 00:10:51;;;;;;;20.90;11.73;;;;;;;;;;5113980;28;20027;-60
2021/04/29 00:13:17;;;;;;;19.83;11.02;;;;;;;;;;5114416;28;20462;-61
2021/04/29 00:15:44;;;;;;;17.45;9.90;;;;;;;;;;5114409;28;20156;-61
2021/04/29 00:18:10;;;;;;;16.70;9.63;;;;;;;;;;5114188;28;20016;-60
2021/04/29 00:20:35;;;;;;;15.38;9.30;;;;;;;;;;5114301;28;20152;-60
2021/04/29 00:23:01;;;;;;;18.33;9.48;;;;;;;;;;5113074;28;20034;-61
2021/04/29 00:25:26;;;;;;;15.50;9.70;;;;;;;;;;5114412;28;20023;-61
2021/04/29 00:27:52;;;;;;;18.55;10.00;;;;;;;;;;5112972;28;20081;-61
2021/04/29 00:30:17;;;;;;;17.45;9.70;;;;;;;;;;5114342;28;20023;-61
2021/04/29 00:32:43;;;;;;;18.42;10.07;;;;;;;;;;5114088;28;20015;-61
2021/04/29 00:35:09;;;;;;;18.27;9.93;;;;;;;;;;5113962;28;20424;-61
2021/04/29 00:37:34;;;;;;;15.70;9.57;;;;;;;;;;5114155;28;20023;-61
2021/04/29 00:39:59;;;;;;;14.95;9.73;;;;;;;;;;5114001;28;20172;-61
2021/04/29 00:42:25;;;;;;;15.48;9.18;;;;;;;;;;5112074;28;20089;-61
2021/04/29 00:44:50;;;;;;;17.40;9.70;;;;;;;;;;5113939;28;20539;-61
2021/04/29 00:47:16;;;;;;;19.55;9.60;;;;;;;;;;5113589;28;20030;-60
2021/04/29 00:49:41;;;;;;;18.63;9.73;;;;;;;;;;5113909;28;20400;-61
2021/04/29 00:52:07;;;;;;;19.05;9.68;;;;;;;;;;5113799;28;20414;-60
2021/04/29 00:54:32;;;;;;;15.70;9.32;;;;;;;;;;5113591;28;20521;-60
2021/04/29 00:56:58;;;;;;;13.82;9.05;;;;;;;;;;5095577;28;20022;-60
2021/04/29 00:59:24;;;;;;;16.08;9.13;;;;;;;;;;5113541;28;20024;-60
2021/04/29 01:01:55;;;;;;;17.23;9.35;;;;;;;;;;5113773;28;20457;-61
2021/04/29 01:04:31;;;;;;;14.70;9.07;;;;;;;;;;5112349;28;20028;-60
2021/04/29 01:07:01;;;;;;;20.80;9.65;;;;;;;;;;5116160;28;20019;-60
2021/04/29 01:09:26;;;;;;;15.20;9.15;;;;;;;;;;5117864;28;20043;-60
2021/04/29 01:11:56;;;;;;;15.48;9.48;;;;;;;;;;5116515;28;20020;-60
2021/04/29 01:14:21;;;;;;;18.15;9.48;;;;;;;;;;5117830;28;20028;-61
2021/04/29 01:16:47;;;;;;;13.95;9.32;;;;;;;;;;5117718;28;20032;-60
2021/04/29 01:19:16;;;;;;;13.50;8.63;;;;;;;;;;5116633;28;20027;-61
2021/04/29 01:21:42;;;;;;;15.82;9.32;;;;;;;;;;5117767;28;20043;-60
2021/04/29 01:24:15;;;;;;;15.43;9.25;;;;;;;;;;5116237;28;20031;-61
2021/04/29 01:26:55;;;;;;;16.58;9.05;;;;;;;;;;5117476;28;20072;-60
2021/04/29 01:29:25;;;;;;;14.00;8.85;;;;;;;;;;5117324;27;20096;-60
2021/04/29 01:31:52;;;;;;;16.70;9.27;;;;;;;;;;5116463;28;20082;-60
2021/04/29 01:34:19;;;;;;;17.63;10.05;;;;;;;;;;5117319;28;20050;-61
2021/04/29 01:36:46;;;;;;;15.63;9.10;;;;;;;;;;5117380;28;20020;-61
2021/04/29 01:39:13;;;;;;;18.10;10.25;;;;;;;;;;5117138;28;20039;-61
2021/04/29 01:41:40;;;;;;;19.42;9.70;;;;;;;;;;5116930;28;20047;-62
2021/04/29 01:44:07;;;;;;;17.80;9.15;;;;;;;;;;5117397;28;20032;-61
2021/04/29 01:46:33;;;;;;;21.98;10.02;;;;;;;;;;5117307;28;20020;-61
2021/04/29 01:48:58;;;;;;;17.40;9.43;;;;;;;;;;5099048;28;20386;-61
2021/04/29 01:51:24;;;;;;;18.73;9.73;;;;;;;;;;5117117;28;20024;-62
2021/04/29 01:53:49;;;;;;;17.45;9.45;;;;;;;;;;5116980;28;20114;-61
2021/04/29 01:56:15;;;;;;;20.73;10.68;;;;;;;;;;5098950;28;20019;-61
2021/04/29 01:58:41;;;;;;;16.05;9.73;;;;;;;;;;5116816;28;20038;-61
2021/04/29 02:01:07;;;;;;;17.30;10.00;;;;;;;;;;5098591;28;20053;-61
2021/04/29 02:03:33;;;;;;;17.27;10.07;;;;;;;;;;5116162;28;20028;-61
2021/04/29 02:05:58;;;;;;;17.27;10.57;;;;;;;;;;5115721;28;20065;-61
2021/04/29 02:08:24;;;;;;;18.33;9.77;;;;;;;;;;5116815;28;20475;-61
2021/04/29 02:10:50;;;;;;;18.27;10.27;;;;;;;;;;5116919;28;20094;-61
2021/04/29 02:13:16;;;;;;;20.85;10.30;;;;;;;;;;5116772;28;20038;-61
2021/04/29 02:15:43;;;;;;;22.23;11.10;;;;;;;;;;5116698;28;20020;-61
2021/04/29 02:18:10;;;;;;;22.98;10.95;;;;;;;;;;5116198;28;20409;-61
2021/04/29 02:20:37;;;;;;;18.50;10.25;;;;;;;;;;5116575;28;20028;-61
2021/04/29 02:23:04;;;;;;;21.23;10.15;;;;;;;;;;5115466;28;20028;-61
2021/04/29 02:25:30;;;;;;;17.83;10.23;;;;;;;;;;5116496;28;20331;-61
2021/04/29 02:27:58;;;;;;;17.13;9.48;;;;;;;;;;5116449;28;20031;-61
2021/04/29 02:30:24;;;;;;;16.33;9.05;;;;;;;;;;5115356;28;20022;-61
2021/04/29 02:32:50;;;;;;;16.85;9.63;;;;;;;;;;5116502;28;20381;-61
2021/04/29 02:35:16;;;;;;;18.48;10.13;;;;;;;;;;5116183;28;20015;-61
2021/04/29 02:37:43;;;;;;;18.23;9.88;;;;;;;;;;5116207;28;20023;-61
2021/04/29 02:40:10;;;;;;;18.40;10.05;;;;;;;;;;5116259;28;20103;-61
2021/04/29 02:42:37;;;;;;;19.23;10.32;;;;;;;;;;5115772;28;20039;-62
2021/04/29 02:45:03;;;;;;;17.60;9.52;;;;;;;;;;5116104;28;20027;-61
2021/04/29 02:47:28;;;;;;;17.50;10.60;;;;;;;;;;5114905;28;20027;-61
2021/04/29 02:49:54;;;;;;;19.50;10.48;;;;;;;;;;5115935;28;20054;-60
2021/04/29 02:52:19;;;;;;;17.17;10.00;;;;;;;;;;5116070;28;20127;-60
2021/04/29 02:54:45;;;;;;;16.27;9.77;;;;;;;;;;5116056;28;20058;-61
2021/04/29 02:57:19;;;;;;;15.93;9.38;;;;;;;;;;5116077;28;20042;-60
2021/04/29 02:59:44;;;;;;;15.13;9.43;;;;;;;;;;5114334;28;20477;-60
2021/04/29 03:02:10;;;;;;;17.77;9.60;;;;;;;;;;5115606;28;20023;-61
2021/04/29 03:04:35;;;;;;;17.83;9.80;;;;;;;;;;5114226;28;20028;-61
2021/04/29 03:07:01;;;;;;;25.88;10.52;;;;;;;;;;5115471;28;20361;-61
2021/04/29 03:09:26;;;;;;;18.77;10.35;;;;;;;;;;5115601;28;20023;-60
2021/04/29 03:11:52;;;;;;;15.20;8.68;;;;;;;;;;5115467;28;20015;-60
2021/04/29 03:14:17;;;;;;;14.40;8.70;;;;;;;;;;5114181;28;20035;-60
2021/04/29 03:16:43;;;;;;;18.27;9.60;;;;;;;;;;5115826;28;20106;-60
2021/04/29 03:19:08;;;;;;;17.20;10.48;;;;;;;;;;5115662;28;20389;-60
2021/04/29 03:21:34;;;;;;;20.58;10.77;;;;;;;;;;5115539;28;20031;-60
2021/04/29 03:23:59;;;;;;;29.58;12.25;;;;;;;;;;5115340;28;20027;-60
2021/04/29 03:26:25;;;;;;;27.92;16.77;;;;;;;;;;5115288;28;20015;-60
2021/04/29 03:28:51;;;;;;;32.47;17.75;;;;;;;;;;5114891;28;20024;-60
2021/04/29 03:31:17;;;;;;;37.78;16.33;;;;;;;;;;5114403;28;20362;-61
2021/04/29 03:33:43;;;;;;;29.75;15.20;;;;;;;;;;5113936;28;20027;-60
2021/04/29 03:36:08;;;;;;;29.08;14.23;;;;;;;;;;5115008;28;20456;-60
2021/04/29 03:38:34;;;;;;;17.73;10.63;;;;;;;;;;5114799;28;20043;-60
2021/04/29 03:40:59;;;;;;;17.48;10.18;;;;;;;;;;5114922;28;20016;-61
2021/04/29 03:43:25;;;;;;;17.80;9.45;;;;;;;;;;5113429;28;20045;-60
2021/04/29 03:45:50;;;;;;;15.77;9.13;;;;;;;;;;5114996;28;20358;-61
2021/04/29 03:48:16;;;;;;;14.13;9.40;;;;;;;;;;5113845;28;20027;-60
2021/04/29 03:50:41;;;;;;;15.98;9.85;;;;;;;;;;5113513;28;20020;-60
2021/04/29 03:53:07;;;;;;;17.80;9.70;;;;;;;;;;5096510;28;20105;-61
2021/04/29 03:55:32;;;;;;;27.70;13.25;;;;;;;;;;5114821;28;20023;-61
2021/04/29 03:57:57;;;;;;;27.73;12.98;;;;;;;;;;5113625;28;20036;-61
2021/04/29 04:00:23;;;;;;;14.90;9.80;;;;;;;;;;5114561;28;20019;-61
2021/04/29 04:02:49;;;;;;;20.45;11.20;;;;;;;;;;5114490;28;20034;-61
2021/04/29 04:05:14;;;;;;;18.77;11.30;;;;;;;;;;5114512;28;20019;-61
2021/04/29 04:07:40;;;;;;;19.30;11.05;;;;;;;;;;5114329;28;20019;-61
2021/04/29 04:10:07;;;;;;;18.58;9.80;;;;;;;;;;5114157;28;20352;-61
2021/04/29 04:12:32;;;;;;;17.85;9.90;;;;;;;;;;5114291;28;20468;-60
2021/04/29 04:14:58;;;;;;;21.45;11.13;;;;;;;;;;5114143;28;20106;-60
2021/04/29 04:17:23;;;;;;;19.58;11.50;;;;;;;;;;5114394;28;20025;-61
2021/04/29 04:19:49;;;;;;;21.60;11.95;;;;;;;;;;5114544;28;20043;-61
2021/04/29 04:22:14;;;;;;;18.17;10.68;;;;;;;;;;5114118;28;20039;-61
2021/04/29 04:24:40;;;;;;;18.83;11.40;;;;;;;;;;5113787;28;20019;-60
2021/04/29 04:27:05;;;;;;;19.85;11.38;;;;;;;;;;5114288;28;20045;-61
2021/04/29 04:29:31;;;;;;;22.90;12.40;;;;;;;;;;5114119;28;20015;-60
2021/04/29 04:31:57;;;;;;;23.88;13.02;;;;;;;;;;5112653;28;20471;-61
2021/04/29 04:34:23;;;;;;;19.40;12.70;;;;;;;;;;5114040;28;20102;-60
2021/04/29 04:36:48;;;;;;;24.02;12.85;;;;;;;;;;5112637;28;20090;-61
2021/04/29 04:39:14;;;;;;;23.83;14.95;;;;;;;;;;5114056;28;20020;-61
2021/04/29 04:41:39;;;;;;;22.42;14.57;;;;;;;;;;5113237;28;20044;-62
2021/04/29 04:44:05;;;;;;;25.70;14.07;;;;;;;;;;5113931;28;20481;-60
2021/04/29 04:46:30;;;;;;;26.23;16.20;;;;;;;;;;5111693;28;20032;-61
2021/04/29 04:48:56;;;;;;;21.65;12.00;;;;;;;;;;5093452;28;20037;-61
2021/04/29 04:51:21;;;;;;;23.98;11.63;;;;;;;;;;5093411;28;20032;-60
2021/04/29 04:53:47;;;;;;;22.83;12.18;;;;;;;;;;5093315;28;20436;-60
2021/04/29 04:56:13;;;;;;;18.33;11.30;;;;;;;;;;5092728;28;20062;-60
2021/04/29 04:58:39;;;;;;;16.10;10.25;;;;;;;;;;5092790;28;20020;-61
2021/04/29 05:01:07;;;;;;;17.48;9.82;;;;;;;;;;5091703;28;20082;-60
2021/04/29 05:03:32;;;;;;;16.77;9.85;;;;;;;;;;5092930;28;20017;-61
2021/04/29 05:05:58;;;;;;;16.88;9.82;;;;;;;;;;5091381;28;20027;-61
2021/04/29 05:08:23;;;;;;;16.67;8.93;;;;;;;;;;5091595;28;20020;-61
2021/04/29 05:10:49;;;;;;;18.00;9.70;;;;;;;;;;5092547;28;20073;-61
2021/04/29 05:13:14;;;;;;;16.83;9.38;;;;;;;;;;5092817;28;20027;-61
2021/04/29 05:15:40;;;;;;;16.90;9.68;;;;;;;;;;5092660;28;20051;-60
2021/04/29 05:18:05;;;;;;;15.57;9.32;;;;;;;;;;5092605;28;20028;-61
2021/04/29 05:20:31;;;;;;;18.17;10.13;;;;;;;;;;5092402;28;20024;-60
2021/04/29 05:22:57;;;;;;;15.77;9.50;;;;;;;;;;5092737;28;20130;-60
2021/04/29 05:25:23;;;;;;;17.02;9.43;;;;;;;;;;5092931;28;20016;-60
2021/04/29 05:27:58;;;;;;;17.27;9.68;;;;;;;;;;5091865;28;20069;-61
2021/04/29 05:30:24;;;;;;;14.82;9.18;;;;;;;;;;5093013;28;20028;-60
2021/04/29 05:32:49;;;;;;;13.93;8.95;;;;;;;;;;5093293;28;20012;-60
2021/04/29 05:35:15;;;;;;;12.70;8.57;;;;;;;;;;5093174;28;20033;-61
2021/04/29 05:37:41;;;;;;;12.45;8.18;;;;;;;;;;5092343;28;20366;-61
2021/04/29 05:40:07;;;;;;;13.85;8.25;;;;;;;;;;5092475;28;20078;-61
2021/04/29 05:42:32;;;;;;;12.85;8.23;;;;;;;;;;5092426;28;20052;-60
2021/04/29 05:44:58;;;;;;;12.23;8.25;;;;;;;;;;5093045;28;20038;-60
2021/04/29 05:47:24;;;;;;;11.52;7.47;;;;;;;;;;5091643;28;20466;-60
2021/04/29 05:49:50;;;;;;;13.20;7.07;;;;;;;;;;5093107;28;20474;-61
2021/04/29 05:52:15;;;;;;;13.70;8.00;;;;;;;;;;5092951;28;20023;-61
2021/04/29 05:54:41;;;;;;;12.23;7.22;;;;;;;;;;5095260;28;20070;-61
2021/04/29 05:57:06;;;;;;;12.48;7.60;;;;;;;;;;5095908;28;20008;-60
2021/04/29 05:59:32;;;;;;;11.20;7.10;;;;;;;;;;5096067;28;20028;-60
2021/04/29 06:01:58;;;;;;;12.70;6.85;;;;;;;;;;5095688;28;20027;-60
2021/04/29 06:04:23;;;;;;;10.75;6.80;;;;;;;;;;5095814;28;20016;-60
2021/04/29 06:06:49;;;;;;;9.88;7.30;;;;;;;;;;5096242;28;20126;-60
2021/04/29 06:09:15;;;;;;;14.05;9.88;;;;;;;;;;5096461;28;20020;-63
2021/04/29 06:11:40;;;;;;;10.93;8.07;;;;;;;;;;5096439;28;20052;-60
2021/04/29 06:14:13;;;;;;;30.17;8.60;;;;;;;;;;5095425;28;20028;-61
2021/04/29 06:16:39;;;;;;;11.48;7.90;;;;;;;;;;5076272;28;20025;-60
2021/04/29 06:19:04;;;;;;;12.70;7.38;;;;;;;;;;5075934;28;20155;-62
2021/04/29 06:21:30;;;;;;;17.40;11.80;;;;;;;;;;5075931;28;20115;-61
2021/04/29 06:23:55;;;;;;;44.65;35.60;;;;;;;;;;5076036;28;20031;-61
2021/04/29 06:26:21;;;;;;;21.65;14.70;;;;;;;;;;5082548;28;20020;-61
2021/04/29 06:28:47;;;;;;;14.90;9.85;;;;;;;;;;5095616;28;20016;-61
2021/04/29 06:31:13;;;;;;;15.18;9.55;;;;;;;;;;5095935;28;20028;-61
2021/04/29 06:33:38;;;;;;;11.80;7.68;;;;;;;;;;5095757;28;20020;-60
2021/04/29 06:36:04;;;;;;;12.50;6.97;;;;;;;;;;5096294;28;20073;-60
2021/04/29 06:38:30;;;;;;;14.10;7.05;;;;;;;;;;5095942;28;20347;-61
2021/04/29 06:40:55;;;;;;;9.52;6.18;;;;;;;;;;5095671;28;20035;-61
2021/04/29 06:43:21;;;;;;;10.55;7.43;;;;;;;;;;5095404;28;20069;-60
2021/04/29 06:45:46;;;;;;;7.80;5.65;;;;;;;;;;5095738;28;20059;-61
2021/04/29 06:48:12;;;;;;;9.35;6.82;;;;;;;;;;5095537;28;20069;-61
2021/04/29 06:50:38;;;;;;;13.93;6.00;;;;;;;;;;5095615;28;20404;-62
2021/04/29 06:53:03;;;;;;;7.75;5.97;;;;;;;;;;5094448;28;20012;-62
2021/04/29 06:55:30;;;;;;;8.55;5.68;;;;;;;;;;5094528;28;20024;-62
2021/04/29 06:57:56;;;;;;;9.27;5.72;;;;;;;;;;5094648;28;20057;-62
2021/04/29 07:00:22;;;;;;;7.60;5.28;;;;;;;;;;5094685;28;20036;-62
2021/04/29 07:02:49;;;;;;;10.45;6.05;;;;;;;;;;5094948;28;20021;-62
2021/04/29 07:05:14;;;;;;;7.13;5.20;;;;;;;;;;5094858;28;20591;-62
2021/04/29 07:07:40;;;;;;;7.25;5.60;;;;;;;;;;5095153;28;20103;-62
2021/04/29 07:10:06;;;;;;;9.73;5.53;;;;;;;;;;5095026;28;20024;-62
2021/04/29 07:12:31;;;;;;;9.10;5.60;;;;;;;;;;5093883;28;20020;-62
2021/04/29 07:14:57;;;;;;;9.50;5.80;;;;;;;;;;5094779;28;20078;-62
2021/04/29 07:17:22;;;;;;;6.80;4.95;;;;;;;;;;5095173;28;20522;-62
2021/04/29 07:19:48;;;;;;;5.78;5.00;;;;;;;;;;5094752;28;20032;-62
2021/04/29 07:22:13;;;;;;;10.65;5.60;;;;;;;;;;5095126;28;20062;-62
2021/04/29 07:24:39;;;;;;;6.25;5.13;;;;;;;;;;5094831;28;20055;-62
2021/04/29 07:27:05;;;;;;;6.63;4.95;;;;;;;;;;5095104;28;20008;-62
2021/04/29 07:29:32;;;;;;;6.40;5.15;;;;;;;;;;5094333;28;20024;-62
2021/04/29 07:31:58;;;;;;;6.80;4.93;;;;;;;;;;5094471;28;20020;-62
2021/04/29 07:34:23;;;;;;;9.90;4.75;;;;;;;;;;5094868;28;20028;-61
2021/04/29 07:36:49;;;;;;;40.00;5.50;;;;;;;;;;5094625;28;20467;-61
2021/04/29 07:39:14;;;;;;;8.82;4.47;;;;;;;;;;5094552;28;20032;-62
2021/04/29 07:41:40;;;;;;;7.57;4.70;;;;;;;;;;5094059;28;20103;-62
2021/04/29 07:44:05;;;;;;;6.25;4.00;;;;;;;;;;5094569;28;20058;-62
2021/04/29 07:46:32;;;;;;;5.78;4.40;;;;;;;;;;5094317;28;20027;-61
2021/04/29 07:48:58;;;;;;;4.40;3.70;;;;;;;;;;5092371;28;20035;-61
2021/04/29 07:51:24;;;;;;;7.38;3.47;;;;;;;;;;5093263;28;20016;-61
2021/04/29 07:53:49;;;;;;;8.25;4.28;;;;;;;;;;5094003;28;20028;-61
2021/04/29 07:56:15;;;;;;;6.93;4.47;;;;;;;;;;5094373;28;20477;-61
2021/04/29 07:58:40;;;;;;;5.90;4.07;;;;;;;;;;5092914;28;20028;-61
2021/04/29 08:01:06;;;;;;;5.47;4.07;;;;;;;;;;5094128;28;20031;-61
2021/04/29 08:03:31;;;;;;;4.78;3.90;;;;;;;;;;5092504;28;20044;-61
2021/04/29 08:05:57;;;;;;;4.40;4.00;;;;;;;;;;5094226;28;20016;-61
2021/04/29 08:08:22;;;;;;;3.40;3.10;;;;;;;;;;5094286;28;20016;-61
2021/04/29 08:10:48;;;;;;;4.63;3.58;;;;;;;;;;5094239;28;20393;-61
2021/04/29 08:13:13;;;;;;;4.30;3.10;;;;;;;;;;5094162;28;20043;-61
2021/04/29 08:15:39;;;;;;;3.67;3.10;;;;;;;;;;5093551;28;20031;-61
2021/04/29 08:18:05;;;;;;;3.20;2.97;;;;;;;;;;5093833;28;20032;-62
2021/04/29 08:20:31;;;;;;;3.55;2.88;;;;;;;;;;5093669;28;20016;-62
2021/04/29 08:22:56;;;;;;;5.78;3.15;;;;;;;;;;5093828;28;20118;-62
2021/04/29 08:25:22;;;;;;;4.28;2.88;;;;;;;;;;5093655;28;20024;-62
2021/04/29 08:27:47;;;;;;;5.03;2.85;;;;;;;;;;5093756;28;20035;-62
2021/04/29 08:30:13;;;;;;;4.47;2.70;;;;;;;;;;5093919;28;20012;-62
2021/04/29 08:32:39;;;;;;;3.50;2.42;;;;;;;;;;5093981;28;20107;-62
2021/04/29 08:35:05;;;;;;;3.72;2.80;;;;;;;;;;5093745;28;20087;-62
2021/04/29 08:37:30;;;;;;;2.78;2.55;;;;;;;;;;5092589;28;20036;-62
2021/04/29 08:39:56;;;;;;;3.15;2.80;;;;;;;;;;5093256;28;20438;-62
2021/04/29 08:42:26;;;;;;;2.55;2.35;;;;;;;;;;5093233;28;20040;-62
2021/04/29 08:44:52;;;;;;;2.60;2.35;;;;;;;;;;5093553;28;20035;-61
2021/04/29 08:47:17;;;;;;;2.60;2.35;;;;;;;;;;5093561;28;20039;-62
2021/04/29 08:49:43;;;;;;;2.90;2.45;;;;;;;;;;5092172;28;20046;-61
2021/04/29 08:52:08;;;;;;;2.97;2.58;;;;;;;;;;5093427;28;20024;-62
2021/04/29 08:54:36;;;;;;;3.55;2.45;;;;;;;;;;5093534;28;20502;-61
2021/04/29 08:57:02;;;;;;;1.85;1.75;;;;;;;;;;5093183;28;20031;-62
2021/04/29 08:59:28;;;;;;;4.15;2.10;;;;;;;;;;5093306;28;20024;-61
2021/04/29 09:01:55;;;;;;;2.90;2.70;;;;;;;;;;5093175;28;20103;-62
2021/04/29 09:04:21;;;;;;;3.45;2.20;;;;;;;;;;5091973;28;20185;-62
2021/04/29 09:06:47;;;;;;;3.30;2.25;;;;;;;;;;5093375;28;20347;-61
2021/04/29 09:09:13;;;;;;;3.20;2.90;;;;;;;;;;5093208;28;20032;-61
2021/04/29 09:11:47;;;;;;;3.10;2.20;;;;;;;;;;5093260;28;20024;-62
2021/04/29 09:14:13;;;;;;;1.55;1.45;;;;;;;;;;5093428;28;20039;-61
2021/04/29 09:16:40;;;;;;;4.60;3.15;;;;;;;;;;5093552;28;20016;-61
2021/04/29 09:19:27;;;;;;;2.58;2.00;;;;;;;;;;5093440;28;20115;-61
2021/04/29 09:21:56;;;;;;;4.15;3.00;;;;;;;;;;5091291;28;20097;-61
2021/04/29 09:24:31;;;;;;;2.45;2.28;;;;;;;;;;5092901;28;20028;-61
2021/04/29 09:27:07;;;;;;;3.72;2.63;;;;;;;;;;5093054;28;20024;-61
2021/04/29 09:29:33;;;;;;;3.88;2.80;;;;;;;;;;5096963;28;20103;-62
2021/04/29 09:31:58;;;;;;;4.90;2.20;;;;;;;;;;5096945;28;20103;-62
2021/04/29 09:34:25;;;;;;;1.33;1.15;;;;;;;;;;5095829;28;20028;-62
2021/04/29 09:36:51;;;;;;;3.92;2.90;;;;;;;;;;5097155;28;20016;-62
2021/04/29 09:39:18;;;;;;;2.75;2.10;;;;;;;;;;5096900;28;20042;-60
2021/04/29 09:41:47;;;;;;;4.75;2.60;;;;;;;;;;5096597;28;20016;-62
2021/04/29 09:44:14;;;;;;;3.90;1.88;;;;;;;;;;5096978;28;20100;-61
2021/04/29 09:46:44;;;;;;;1.83;1.67;;;;;;;;;;5096433;28;20040;-62
2021/04/29 09:49:25;;;;;;;0.53;0.53;;;;;;;;;;5095191;28;20089;-61
2021/04/29 09:51:50;;;;;;;;;;;;;;;;;;5095046;28;20145;-61
2021/04/29 09:54:24;;;;;;;1.70;1.60;;;;;;;;;;5096351;28;20383;-61
2021/04/29 09:56:54;;;;;;;2.17;1.98;;;;;;;;;;5096276;28;20073;-61
2021/04/29 09:59:19;;;;;;;3.45;2.20;;;;;;;;;;5096399;28;20031;-61
2021/04/29 10:01:45;;;;;;;3.15;2.30;;;;;;;;;;5094926;28;20028;-61
2021/04/29 10:04:10;;;;;;;2.45;2.08;;;;;;;;;;5096048;28;20032;-61
2021/04/29 10:06:36;;;;;;;3.05;2.08;;;;;;;;;;5096083;28;20023;-61
2021/04/29 10:09:02;;;;;;;2.15;1.92;;;;;;;;;;5094837;28;20055;-61
2021/04/29 10:11:27;;;;;;;1.45;1.35;;;;;;;;;;5096169;28;20027;-61
2021/04/29 10:13:54;;;;;;;2.17;1.98;;;;;;;;;;5095753;28;20035;-62
2021/04/29 10:16:23;;;;;;;3.70;3.30;;;;;;;;;;5096250;28;20042;-61
2021/04/29 10:18:50;;;;;;;2.85;1.92;;;;;;;;;;5095845;28;20032;-61
2021/04/29 10:21:17;;;;;;;2.47;2.25;;;;;;;;;;5096066;28;20424;-61
2021/04/29 10:23:44;;;;;;;3.60;2.97;;;;;;;;;;5094587;28;20039;-61
2021/04/29 10:26:09;;;;;;;3.97;3.10;;;;;;;;;;5095845;28;20077;-61
2021/04/29 10:28:36;;;;;;;2.72;2.50;;;;;;;;;;5096116;28;20495;-61
2021/04/29 10:31:34;;;;;;;2.42;2.22;;;;;;;;;;5095703;28;20012;-62
2021/04/29 10:34:03;;;;;;;2.10;1.90;;;;;;;;;;5072125;28;20140;-61
2021/04/29 10:36:36;;;;;;;4.07;3.03;;;;;;;;;;5094910;28;20039;-61
2021/04/29 10:39:34;;;;;;;0.57;0.57;;;;;;;;;;5095125;28;20481;-61
2021/04/29 10:42:08;;;;;;;4.50;3.05;;;;;;;;;;5071979;28;20100;-62
2021/04/29 10:44:40;;;;;;;4.10;3.42;;;;;;;;;;5095803;28;20466;-62
2021/04/29 10:47:06;;;;;;;7.10;5.03;;;;;;;;;;5095770;28;20024;-62
2021/04/29 10:49:32;;;;;;;4.60;3.50;;;;;;;;;;5095773;28;20466;-62
2021/04/29 10:52:00;;;;;;;5.75;3.95;;;;;;;;;;5095677;28;20120;-62
2021/04/29 10:54:26;;;;;;;4.63;3.92;;;;;;;;;;5094388;28;20162;-62
2021/04/29 10:57:03;;;;;;;5.70;4.68;;;;;;;;;;5094214;28;20035;-62
2021/04/29 10:59:42;;;;;;;5.05;4.25;;;;;;;;;;5095464;28;20146;-62
2021/04/29 11:02:29;;;;;;;3.35;2.83;;;;;;;;;;5087235;28;20028;-62
2021/04/29 11:04:55;;;;;;;2.92;1.92;;;;;;;;;;5092272;28;20042;-61
2021/04/29 11:07:22;;;;;;;6.47;4.07;;;;;;;;;;5091741;28;20139;-61
2021/04/29 11:10:03;;;;;;;2.13;1.63;;;;;;;;;;5091681;28;20906;-61
2021/04/29 11:12:48;;;;;;;1.88;1.75;;;;;;;;;;5091041;28;20077;-61
2021/04/29 11:15:21;;;;;;;5.72;3.90;;;;;;;;;;5091352;28;20036;-62
2021/04/29 11:17:46;;;;;;;4.28;3.70;;;;;;;;;;5073100;28;20023;-62
2021/04/29 11:20:12;;;;;;;5.40;3.92;;;;;;;;;;5091408;28;20455;-61
2021/04/29 11:22:39;;;;;;;5.47;4.53;;;;;;;;;;5091091;28;20066;-61
2021/04/29 11:25:08;;;;;;;4.25;3.10;;;;;;;;;;5090211;28;20019;-61
2021/04/29 11:27:35;;;;;;;1.58;1.45;;;;;;;;;;5091338;28;20131;-62
2021/04/29 11:30:03;;;;;;;7.78;3.92;;;;;;;;;;5091327;28;20027;-61
2021/04/29 11:32:32;;;;;;;5.90;4.45;;;;;;;;;;5090742;28;20036;-61
2021/04/29 11:34:57;;;;;;;8.05;4.88;;;;;;;;;;5091426;28;20032;-61
2021/04/29 11:37:23;;;;;;;4.57;3.85;;;;;;;;;;5090881;28;20028;-61
2021/04/29 11:39:56;;;;;;;4.82;4.00;;;;;;;;;;5091071;28;20024;-61
2021/04/29 11:42:23;;;;;;;3.22;2.80;;;;;;;;;;5088935;28;20093;-61
2021/04/29 11:44:49;;;;;;;4.25;3.65;;;;;;;;;;5089818;28;20028;-61
2021/04/29 11:47:15;;;;;;;4.10;3.63;;;;;;;;;;5090927;28;20500;-61
2021/04/29 11:49:41;;;;;;;1.67;1.58;;;;;;;;;;5090404;28;20052;-61
2021/04/29 11:52:07;;;;;;;3.13;2.47;;;;;;;;;;5089682;28;20028;-61
2021/04/29 11:54:33;;;;;;;4.03;3.63;;;;;;;;;;5089425;28;20028;-61
2021/04/29 11:57:01;;;;;;;2.25;0.90;;;;;;;;;;5090831;28;20081;-61
2021/04/29 11:59:33;;;;;;;2.83;1.88;;;;;;;;;;5090754;28;20035;-61
2021/04/29 12:02:01;;;;;;;5.55;3.85;;;;;;;;;;5089653;28;20066;-61
2021/04/29 12:04:28;;;;;;;2.05;1.92;;;;;;;;;;5090025;28;20430;-62
2021/04/29 12:06:58;;;;;;;2.88;2.05;;;;;;;;;;5090819;28;20035;-61
2021/04/29 12:09:28;;;;;;;5.95;3.47;;;;;;;;;;5089090;28;20172;-61
2021/04/29 12:11:54;;;;;;;5.80;4.72;;;;;;;;;;5091389;28;20031;-61
2021/04/29 12:14:27;;;;;;;3.13;2.15;;;;;;;;;;5094104;28;20081;-61
2021/04/29 12:16:58;;;;;;;4.13;3.45;;;;;;;;;;5094033;28;20547;-61
2021/04/29 12:19:31;;;;;;;3.65;3.08;;;;;;;;;;5092499;28;20031;-61
2021/04/29 12:21:57;;;;;;;5.55;3.03;;;;;;;;;;5093867;28;20046;-61
2021/04/29 12:24:23;;;;;;;4.30;3.67;;;;;;;;;;5093804;28;20449;-61
2021/04/29 12:26:48;;;;;;;4.95;4.05;;;;;;;;;;5093966;28;20081;-61
2021/04/29 12:29:19;;;;;;;6.60;4.70;;;;;;;;;;5093714;28;20020;-64
2021/04/29 12:31:55;;;;;;;6.43;5.15;;;;;;;;;;5093713;28;20024;-65
2021/04/29 12:34:21;;;;;;;7.28;5.07;;;;;;;;;;5093902;28;20028;-64
2021/04/29 12:36:57;;;;;;;5.40;4.38;;;;;;;;;;5092439;28;20016;-65
2021/04/29 12:39:25;;;;;;;4.07;3.65;;;;;;;;;;5092963;28;20114;-73
2021/04/29 12:41:54;;;;;;;5.85;3.33;;;;;;;;;;5092888;28;20020;-65
2021/04/29 12:44:30;;;;;;;5.10;3.78;;;;;;;;;;5093305;28;20028;-72
2021/04/29 12:46:55;;;;;;;6.13;4.28;;;;;;;;;;5093531;28;20035;-72
2021/04/29 12:49:21;;;;;;;4.47;3.90;;;;;;;;;;5093471;28;20012;-72
2021/04/29 12:51:46;;;;;;;6.78;4.47;;;;;;;;;;5093369;28;20019;-71
2021/04/29 12:54:16;;;;;;;5.18;4.05;;;;;;;;;;5092109;28;20469;-72
2021/04/29 12:56:46;;;;;;;5.32;4.82;;;;;;;;;;5093543;28;20060;-72
2021/04/29 12:59:13;;;;;;;2.67;2.47;;;;;;;;;;5092767;28;20111;-71
2021/04/29 13:01:40;;;;;;;6.93;4.28;;;;;;;;;;5092976;28;20020;-72
2021/04/29 13:04:16;;;;;;;5.85;4.68;;;;;;;;;;5095371;28;20028;-71
2021/04/29 13:06:45;;;;;;;7.75;5.28;;;;;;;;;;5097399;28;20495;-72
2021/04/29 13:09:10;;;;;;;6.10;5.15;;;;;;;;;;5097465;28;20070;-72
2021/04/29 13:11:48;;;;;;;5.20;4.03;;;;;;;;;;5096357;28;20028;-71
2021/04/29 13:14:25;;;;;;;1.30;1.20;;;;;;;;;;5097342;28;20024;-71
2021/04/29 13:16:51;;;;;;;5.28;4.63;;;;;;;;;;5097628;28;20032;-71
2021/04/29 13:19:16;;;;;;;3.38;2.45;;;;;;;;;;5097574;28;20026;-71
2021/04/29 13:21:43;;;;;;;4.97;3.15;;;;;;;;;;5096653;28;20032;-71
2021/04/29 13:24:09;;;;;;;2.13;1.88;;;;;;;;;;5097154;28;20020;-71
2021/04/29 13:26:35;;;;;;;6.10;4.50;;;;;;;;;;5096457;28;20069;-71
2021/04/29 13:29:01;;;;;;;5.07;3.65;;;;;;;;;;5095591;28;20020;-72
2021/04/29 13:31:26;;;;;;;1.73;1.60;;;;;;;;;;5096732;28;20454;-71
2021/04/29 13:33:52;;;;;;;8.30;5.90;;;;;;;;;;5097313;28;20034;-71
2021/04/29 13:36:18;;;;;;;5.80;4.32;;;;;;;;;;5096522;28;20027;-71
2021/04/29 13:38:43;;;;;;;7.32;4.15;;;;;;;;;;5095365;28;20066;-71
2021/04/29 13:41:09;;;;;;;6.50;5.03;;;;;;;;;;5096804;28;20409;-71
2021/04/29 13:43:35;;;;;;;5.60;4.40;;;;;;;;;;5096775;28;20079;-71
2021/04/29 13:46:02;;;;;;;6.07;4.88;;;;;;;;;;5095474;28;20028;-71
2021/04/29 13:48:28;;;;;;;8.20;5.22;;;;;;;;;;5096684;28;20052;-71
2021/04/29 13:50:53;;;;;;;6.38;5.07;;;;;;;;;;5096563;28;20024;-71
2021/04/29 13:53:19;;;;;;;1.98;1.88;;;;;;;;;;5096392;28;20027;-71
2021/04/29 13:55:45;;;;;;;5.93;4.35;;;;;;;;;;5094489;28;20032;-71
2021/04/29 13:58:11;;;;;;;6.28;2.30;;;;;;;;;;5093641;28;20035;-71
2021/04/29 14:00:37;;;;;;;8.15;6.38;;;;;;;;;;5095286;28;20028;-71
2021/04/29 14:03:04;;;;;;;3.10;2.80;;;;;;;;;;5095178;28;20529;-71
2021/04/29 14:05:29;;;;;;;7.25;5.28;;;;;;;;;;5095374;28;20174;-71
2021/04/29 14:07:55;;;;;;;1.02;1.02;;;;;;;;;;5094553;28;20086;-71
2021/04/29 14:10:20;;;;;;;2.42;1.92;;;;;;;;;;5096011;28;20028;-71
2021/04/29 14:12:45;;;;;;;8.77;5.90;;;;;;;;;;5096020;28;20023;-71
2021/04/29 14:15:11;;;;;;;3.15;1.40;;;;;;;;;;5095270;28;20035;-71
2021/04/29 14:17:37;;;;;;;11.40;6.13;;;;;;;;;;5095994;28;20097;-71
2021/04/29 14:20:03;;;;;;;10.88;6.35;;;;;;;;;;5095899;28;20032;-71
2021/04/29 14:22:28;;;;;;;8.73;5.22;;;;;;;;;;5095832;28;20098;-71
2021/04/29 14:24:53;;;;;;;8.77;5.95;;;;;;;;;;5095797;28;20377;-71
2021/04/29 14:27:19;;;;;;;6.47;5.13;;;;;;;;;;5095933;28;20019;-71
2021/04/29 14:29:44;;;;;;;6.07;5.03;;;;;;;;;;5095561;28;20111;-71
2021/04/29 14:32:09;;;;;;;8.27;5.18;;;;;;;;;;5095654;28;20047;-71